• Join FlightAware (Why Join?)
  • Login
  • US Flag 
07:16PM EST


 

Airport Tracker/Info


-or-


 

Live Flight TrackerFlight Track Log ✈ SWA1586 ✈ 28-Dec-2013 ✈ KDAL - KELP

Flight Track Log - Related Links

Times and Time Zones

All times are in EST time to prevent confusion due to time zone crossing. See the SWA1586 flight status page for this flight to view local times or setup timezone preferences in your user account.

Time Position Orientation Groundspeed Altitude Reporting Facility
EST Latitude Longitude Course Direction KTS MPH feet Rate Location/Type
09:18AM 32.8333 -96.8333 140° Southeast 165 190 1,400  Level Dallas / Fort Worth TRACON
09:20AM 32.7833 -96.7833 140° Southeast 230 265 3,900 2,400 Climbing Dallas / Fort Worth TRACON
09:21AM 32.7333 -96.7333 140° Southeast 228 262 6,800 2,100 Climbing Dallas / Fort Worth TRACON
09:23AM 32.6386 -96.8897 234° Southwest 301 346 10,900 2,100 Climbing Fort Worth Center
09:24AM 32.6258 -97.0022 262° West 337 388 13,700 2,340 Climbing Fort Worth Center
09:25AM 32.6386 -97.1142 278° West 342 394 15,800 2,040 Climbing Fort Worth Center
09:26AM 32.6506 -97.2311 277° West 356 410 17,900 1,860 Climbing Fort Worth Center
09:27AM 32.6622 -97.3492 277° West 359 413 19,700 1,560 Climbing Fort Worth Center
09:28AM 32.6761 -97.4794 277° West 367 422 21,200 1,500 Climbing Fort Worth Center
09:29AM 32.6886 -97.6061 277° West 383 441 22,800 1,260 Climbing Fort Worth Center
09:30AM 32.7000 -97.7217 277° West 387 445 23,900 1,140 Climbing Fort Worth Center
09:31AM 32.7122 -97.8528 276° West 397 457 25,200 1,080 Climbing Fort Worth Center
09:32AM 32.7256 -97.9853 277° West 403 464 26,200 1,020 Climbing Fort Worth Center
09:33AM 32.7086 -98.1461 263° West 408 470 27,400 1,020 Climbing Fort Worth Center
09:34AM 32.6914 -98.2794 261° West 410 472 28,300 1,260 Climbing Fort Worth Center
09:35AM 32.6756 -98.4153 262° West 415 478 30,000 1,800 Climbing Fort Worth Center
09:36AM 32.6592 -98.5325 261° West 407 468 32,100 1,560 Climbing Fort Worth Center
09:37AM 32.6397 -98.6892 262° West 401 461 33,300 900 Climbing Fort Worth Center
09:38AM 32.6214 -98.8272 261° West 419 482 34,000 300 Climbing Fort Worth Center
09:39AM 32.6039 -98.9606 261° West 410 472 34,000  Level Fort Worth Center
09:40AM 32.5864 -99.0900 261° West 399 459 34,000  Level Fort Worth Center
09:41AM 32.5683 -99.2225 261° West 405 466 34,000  Level Fort Worth Center
09:42AM 32.5511 -99.3556 261° West 408 470 34,000  Level Fort Worth Center
09:43AM 32.5319 -99.4911 261° West 414 476 34,000  Level Fort Worth Center
09:44AM 32.5125 -99.6283 260° West 419 482 34,000  Level Fort Worth Center
09:45AM 32.4933 -99.7669 261° West 421 484 34,000  Level Fort Worth Center
09:46AM 32.4772 -99.9083 262° West 425 489 34,000  Level Fort Worth Center
09:47AM 32.4628 -100.0764 264° West 424 488 34,000  Level Fort Worth Center
09:48AM 32.4492 -100.2164 263° West 425 489 34,000  Level Fort Worth Center
09:50AM 32.4361 -100.3569 264° West 428 493 34,000  Level Fort Worth Center
09:51AM 32.4222 -100.4956 263° West 425 489 34,000  Level Fort Worth Center
09:52AM 32.4094 -100.6356 264° West 427 491 34,000  Level Fort Worth Center
09:53AM 32.3950 -100.7758 263° West 428 493 34,000  Level Fort Worth Center
09:54AM 32.3836 -100.9136 264° West 423 487 34,000  Level Fort Worth Center
09:55AM 32.3697 -101.0514 263° West 422 486 34,000  Level Fort Worth Center
09:56AM 32.3531 -101.2192 263° West 426 490 34,000  Level Fort Worth Center
09:57AM 32.3406 -101.3419 263° West 423 487 34,000  Level Fort Worth Center
09:58AM 32.3258 -101.4797 263° West 424 488 34,000  Level Fort Worth Center
09:59AM 32.3106 -101.6181 263° West 425 489 34,000  Level Fort Worth Center
10:00AM 32.2939 -101.7847 263° West 427 491 34,000  Level Fort Worth Center
10:01AM 32.2786 -101.9231 263° West 426 490 34,000  Level Fort Worth Center
10:02AM 32.2633 -102.0631 263° West 428 493 34,000  Level Fort Worth Center
10:03AM 32.2483 -102.2031 263° West 428 493 34,000  Level Fort Worth Center
10:04AM 32.2331 -102.3428 263° West 428 493 34,000  Level Fort Worth Center
10:05AM 32.2175 -102.4825 263° West 427 491 34,000  Level Fort Worth Center
10:06AM 32.2017 -102.6222 262° West 427 491 34,000  Level Fort Worth Center
10:07AM 32.1833 -102.7883 263° West 426 490 34,000  Level Fort Worth Center
10:08AM 32.1675 -102.9264 262° West 426 490 34,000  Level Fort Worth Center
10:09AM 32.1519 -103.0653 263° West 426 490 34,000  Level Fort Worth Center
10:10AM 32.1350 -103.2028 262° West 427 491 34,000  Level Fort Worth Center
10:11AM 32.1197 -103.3417 263° West 427 491 34,000  Level Fort Worth Center
10:12AM 32.1008 -103.4792 261° West 426 490 34,000  Level Fort Worth Center
10:13AM 32.0836 -103.6164 262° West 426 490 34,000  Level Fort Worth Center
10:14AM 32.0639 -103.7808 262° West 426 490 34,000  Level Fort Worth Center
10:15AM 32.0467 -103.9189 262° West 427 491 34,000  Level Fort Worth Center
10:16AM 32.0297 -104.0572 262° West 427 491 34,000  Level Fort Worth Center
10:17AM 32.0125 -104.1956 262° West 428 493 34,000  Level Fort Worth Center
10:18AM 31.9953 -104.3328 262° West 427 491 34,000  Level Fort Worth Center
10:19AM 31.9753 -104.4969 262° West 425 489 34,000  Level Fort Worth Center
10:20AM 31.9633 -104.6356 264° West 426 490 34,000 -1,320 Level Fort Worth Center
10:22AM 31.9475 -104.8014 264° West 424 488 30,900 -2,580 Descending Albuquerque Center
10:23AM 31.9314 -104.9653 263° West 425 489 28,000 -2,640 Descending Albuquerque Center
10:24AM 31.9172 -105.0958 263° West 418 481 25,600 -2,340 Descending Albuquerque Center
10:25AM 31.9033 -105.2189 262° West 400 460 23,200 -2,460 Descending Albuquerque Center
10:26AM 31.8914 -105.3164 262° West 383 441 21,500 -2,280 Descending Albuquerque Center
10:26AM 31.8903 -105.3414 267° West 385 443 20,900 -2,280 Descending Albuquerque Center
10:27AM 31.8789 -105.4325 262° West 363 418 19,200 -2,160 Descending Albuquerque Center
10:27AM 31.8775 -105.4594 267° West 368 423 18,700 -1,980 Descending Albuquerque Center
10:28AM 31.8719 -105.5544 266° West 341 392 17,000 -1,980 Descending Albuquerque Center
10:28AM 31.8742 -105.5706 279° West 344 396 16,700 -2,340 Descending Albuquerque Center
10:29AM 31.8733 -105.6644 269° West 331 381 14,700 -2,580 Descending Albuquerque Center
10:29AM 31.8736 -105.7000 271° West 331 381 14,000 -2,220 Descending Albuquerque Center
10:30AM 31.8714 -105.7675 268° West 318 366 12,500 -2,100 Descending Albuquerque Center
10:30AM 31.8733 -105.8019 274° West 318 366 11,900 -2,100 Descending Albuquerque Center
10:31AM 31.8700 -105.8756 267° West 308 354 10,400 -1,980 Descending Albuquerque Center
10:31AM 31.8717 -105.9025 274° West 310 357 9,900 -600 Descending Albuquerque Center
10:32AM 31.8700 -105.9681 268° West 276 318 9,800 -540 Descending Albuquerque Center
10:32AM 31.8683 -105.9908 265° West 273 314 9,400 -1,320 Descending Albuquerque Center
10:33AM 31.8661 -106.0517 268° West 246 283 8,500 -1,260 Descending Albuquerque Center
10:33AM 31.8658 -106.0731 269° West 256 295 8,100 -1,140 Descending Albuquerque Center
10:34AM 31.8483 -106.1289 250° West 236 272 7,400 -1,020 Descending Albuquerque Center
10:34AM 31.8433 -106.1442 249° West 232 267 7,100 -1,140 Descending Albuquerque Center
10:35AM 31.8267 -106.1967 250° West 224 258 6,300 -1,080 Descending Albuquerque Center
10:35AM 31.8214 -106.2128 249° West 225 259 6,000 -720 Descending Albuquerque Center
10:36AM 31.8044 -106.2622 248° West 211 243 5,600 -780 Descending Albuquerque Center
10:36AM 31.7975 -106.2872 252° West 203 234 5,200 -840 Descending Albuquerque Center
10:37AM 31.7989 -106.3136 274° West 153 176 4,800 -840 Descending Albuquerque Center
10:37AM 31.7992 -106.3336 271° West 147 169 4,400 -660 Descending Albuquerque Center
10:38AM 31.8025 -106.3761 275° West 135 155 3,900 -540 Descending Albuquerque Center
10:40AM 31.8000 -106.3667 North  Level FlightAware Approximate
10:47AM 31.8072 -106.3764 North  Level Estimated
10:48AM 31.8072 -106.3764 North  Level Estimated
10:49AM 31.8072 -106.3764 North  Level Estimated
10:50AM 31.8072 -106.3764 North  Level Estimated